Time;durP1;ratioP1;P1;durP2;ratioP2;P2;SDS_P1;SDS_P2;PMS_P1;PMS_P2;Temp;Humidity;BMP_temperature;BMP_pressure;BME280_temperature;BME280_humidity;BME280_pressure;Samples;Min_cycle;Max_cycle;Signal;HPM_P1;HPM_P2
2022/11/14 00:00:11;;;;;;;36.33;20.38;;;6.10;99.90;;;;;;5124990;27;20074;-74
2022/11/14 00:02:37;;;;;;;32.95;20.38;;;6.10;99.90;;;;;;5141639;27;20043;-72
2022/11/14 00:05:04;;;;;;;34.22;21.00;;;6.20;99.90;;;;;;5112455;27;20047;-74
2022/11/14 00:07:30;;;;;;;33.65;20.02;;;6.20;99.90;;;;;;5141516;27;20147;-72
2022/11/14 00:09:56;;;;;;;29.67;19.55;;;6.20;99.90;;;;;;5113926;27;20031;-72
2022/11/14 00:12:21;;;;;;;36.00;21.85;;;7.30;99.90;;;;;;5104792;27;20074;-72
2022/11/14 00:14:47;;;;;;;35.22;20.75;;;6.20;99.90;;;;;;5143986;27;20088;-73
2022/11/14 00:17:13;;;;;;;30.98;20.52;;;6.30;99.90;;;;;;5126276;27;20043;-72
2022/11/14 00:19:38;;;;;;;32.25;19.52;;;6.20;99.90;;;;;;5124721;27;20088;-72
2022/11/14 00:22:04;;;;;;;31.30;19.98;;;6.30;99.90;;;;;;5143673;27;20088;-72
2022/11/14 00:24:30;;;;;;;34.70;20.08;;;6.30;99.90;;;;;;5149547;27;20041;-72
2022/11/14 00:26:56;;;;;;;32.42;19.40;;;6.30;99.90;;;;;;5079243;27;20039;-73
2022/11/14 00:29:21;;;;;;;33.72;20.55;;;6.30;99.90;;;;;;5108678;27;20034;-72
2022/11/14 00:31:47;;;;;;;31.58;19.50;;;6.30;99.90;;;;;;5142792;27;20076;-72
2022/11/14 00:34:13;;;;;;;31.92;19.77;;;6.30;99.90;;;;;;5125224;27;20080;-72
2022/11/14 00:36:38;;;;;;;33.13;20.42;;;6.70;99.90;;;;;;5144524;27;20047;-72
2022/11/14 00:39:04;;;;;;;32.33;20.55;;;6.30;99.90;;;;;;5143783;27;20051;-71
2022/11/14 00:41:30;;;;;;;28.73;19.50;;;6.30;99.90;;;;;;5124577;27;20497;-72
2022/11/14 00:43:55;;;;;;;30.23;19.70;;;6.40;99.90;;;;;;5123824;27;20435;-72
2022/11/14 00:46:21;;;;;;;28.77;19.85;;;6.40;99.90;;;;;;5144101;27;20094;-72
2022/11/14 00:48:46;;;;;;;27.65;20.20;;;6.30;99.90;;;;;;5122944;27;20035;-72
2022/11/14 00:51:12;;;;;;;35.25;20.58;;;6.40;99.90;;;;;;5125371;27;20035;-72
2022/11/14 00:53:38;;;;;;;34.25;21.20;;;6.40;99.90;;;;;;5147887;27;20050;-72
2022/11/14 00:56:04;;;;;;;29.15;20.45;;;7.50;99.90;;;;;;5121888;27;20418;-72
2022/11/14 00:58:30;;;;;;;30.45;22.25;;;6.40;99.90;;;;;;5143874;27;20043;-71
2022/11/14 01:00:56;;;;;;;31.50;22.50;;;6.40;99.90;;;;;;5123723;27;20478;-74
2022/11/14 01:03:22;;;;;;;33.70;21.80;;;6.40;99.90;;;;;;5123835;27;20072;-72
2022/11/14 01:05:49;;;;;;;31.30;21.58;;;6.50;99.90;;;;;;5143857;27;20043;-72
2022/11/14 01:08:16;;;;;;;30.73;20.85;;;7.20;99.90;;;;;;5125767;27;20057;-72
2022/11/14 01:10:47;;;;;;;31.02;21.10;;;6.50;99.90;;;;;;5140294;27;20078;-72
2022/11/14 01:13:14;;;;;;;31.63;21.85;;;7.20;99.90;;;;;;5139561;27;20051;-72
2022/11/14 01:15:45;;;;;;;36.28;22.88;;;6.50;99.90;;;;;;5139432;27;20040;-72
2022/11/14 01:18:13;;;;;;;32.78;22.20;;;6.50;99.90;;;;;;5129186;27;20092;-72
2022/11/14 01:20:40;;;;;;;34.83;23.30;;;7.10;99.90;;;;;;5121386;27;20126;-72
2022/11/14 01:23:07;;;;;;;35.90;22.75;;;6.50;99.90;;;;;;5142090;27;20047;-72
2022/11/14 01:25:34;;;;;;;30.92;23.05;;;6.50;99.90;;;;;;5107927;27;20082;-72
2022/11/14 01:27:59;;;;;;;34.05;23.67;;;7.70;99.90;;;;;;5107117;27;20045;-72
2022/11/14 01:30:25;;;;;;;35.33;24.55;;;6.50;99.90;;;;;;5143044;27;20039;-71
2022/11/14 01:32:50;;;;;;;38.95;24.45;;;6.90;99.90;;;;;;5141624;27;20088;-73
2022/11/14 01:35:16;;;;;;;38.42;25.88;;;6.50;99.90;;;;;;5124902;27;20051;-72
2022/11/14 01:37:42;;;;;;;36.33;24.98;;;6.50;99.90;;;;;;5123843;27;20054;-72
2022/11/14 01:40:08;;;;;;;38.20;25.85;;;6.80;99.90;;;;;;5141763;27;20041;-73
2022/11/14 01:42:34;;;;;;;37.90;26.55;;;6.50;99.90;;;;;;5123925;27;20050;-71
2022/11/14 01:45:00;;;;;;;39.05;27.30;;;6.60;99.90;;;;;;5140754;27;20144;-72
2022/11/14 01:47:30;;;;;;;43.08;28.55;;;6.50;99.90;;;;;;5142969;27;20477;-72
2022/11/14 01:49:59;;;;;;;43.03;29.58;;;6.50;99.90;;;;;;5122072;27;20435;-73
2022/11/14 01:52:33;;;;;;;39.15;27.88;;;6.50;99.90;;;;;;5123479;27;20342;-72
2022/11/14 01:55:01;;;;;;;42.45;29.13;;;6.50;99.90;;;;;;5141030;27;20046;-72
2022/11/14 01:57:37;;;;;;;39.85;28.52;;;6.60;99.90;;;;;;5124609;27;20125;-72
2022/11/14 02:00:09;;;;;;;43.33;29.75;;;6.50;99.90;;;;;;5140386;27;20066;-72
2022/11/14 02:02:35;;;;;;;44.05;29.42;;;6.50;99.90;;;;;;5118139;27;20051;-72
2022/11/14 02:05:14;;;;;;;41.67;28.42;;;6.50;99.90;;;;;;5105806;27;20482;-72
2022/11/14 02:07:40;;;;;;;53.92;34.35;;;7.40;99.90;;;;;;5106247;27;20058;-72
2022/11/14 02:10:13;;;;;;;50.47;35.70;;;6.50;99.90;;;;;;5141965;27;20140;-73
2022/11/14 02:12:39;;;;;;;54.20;35.67;;;6.50;99.90;;;;;;5142170;27;20038;-71
2022/11/14 02:15:06;;;;;;;51.03;36.03;;;6.50;99.90;;;;;;5123206;27;20259;-72
2022/11/14 02:17:32;;;;;;;54.63;37.58;;;6.40;99.90;;;;;;5142771;27;20041;-71
2022/11/14 02:20:13;;;;;;;54.58;36.45;;;7.80;99.90;;;;;;5141038;27;20039;-72
2022/11/14 02:22:40;;;;;;;57.97;36.60;;;6.40;99.90;;;;;;5124473;27;20053;-72
2022/11/14 02:25:07;;;;;;;55.30;37.25;;;6.70;99.90;;;;;;5142526;27;20026;-73
2022/11/14 02:27:35;;;;;;;54.38;35.65;;;6.40;99.90;;;;;;5109869;27;20488;-72
2022/11/14 02:30:10;;;;;;;53.15;36.22;;;6.40;99.90;;;;;;5140374;27;20113;-73
2022/11/14 02:32:36;;;;;;;55.20;36.38;;;6.40;99.90;;;;;;5125085;27;20531;-72
2022/11/14 02:35:02;;;;;;;56.63;35.92;;;6.40;99.90;;;;;;5139940;27;20062;-72
2022/11/14 02:37:27;;;;;;;59.17;37.65;;;7.80;99.90;;;;;;5107611;27;20447;-73
2022/11/14 02:39:53;;;;;;;53.15;37.20;;;6.30;99.90;;;;;;5105448;27;20035;-72
2022/11/14 02:42:18;;;;;;;56.88;37.22;;;6.40;99.90;;;;;;5138411;27;20031;-72
2022/11/14 02:44:44;;;;;;;55.60;36.80;;;6.30;99.90;;;;;;5125669;27;20092;-72
2022/11/14 02:47:09;;;;;;;52.08;35.38;;;6.30;99.90;;;;;;5120108;27;20069;-72
2022/11/14 02:49:35;;;;;;;59.20;38.28;;;6.40;99.90;;;;;;5123494;27;20057;-72
2022/11/14 02:52:01;;;;;;;55.55;37.10;;;7.70;99.90;;;;;;5137373;27;20047;-74
2022/11/14 02:54:26;;;;;;;57.47;37.25;;;6.30;99.90;;;;;;5144048;27;20104;-72
2022/11/14 02:56:52;;;;;;;58.63;37.90;;;6.30;99.90;;;;;;5123188;27;20382;-72
2022/11/14 02:59:18;;;;;;;58.67;37.13;;;6.10;99.90;;;;;;5122215;27;20035;-72
2022/11/14 03:01:44;;;;;;;56.55;35.60;;;6.30;99.90;;;;;;5122804;27;20481;-72
2022/11/14 03:04:09;;;;;;;56.13;36.55;;;6.30;99.90;;;;;;5122632;27;20130;-72
2022/11/14 03:06:35;;;;;;;57.50;37.65;;;6.30;99.90;;;;;;5106368;27;20046;-72
2022/11/14 03:09:01;;;;;;;58.22;37.55;;;6.30;99.90;;;;;;5103724;27;20082;-72
2022/11/14 03:11:26;;;;;;;60.78;37.03;;;6.30;99.90;;;;;;5122312;27;20112;-71
2022/11/14 03:13:52;;;;;;;55.47;37.45;;;6.30;99.90;;;;;;5106048;27;20054;-72
2022/11/14 03:16:17;;;;;;;54.08;36.28;;;6.30;99.90;;;;;;5139706;27;20027;-72
2022/11/14 03:18:43;;;;;;;61.20;40.15;;;6.40;99.90;;;;;;5106322;27;20035;-72
2022/11/14 03:21:17;;;;;;;58.22;37.58;;;6.40;99.90;;;;;;5121797;27;20039;-71
2022/11/14 03:23:43;;;;;;;58.75;36.80;;;6.30;99.90;;;;;;5122409;27;20053;-72
2022/11/14 03:26:10;;;;;;;54.20;36.28;;;7.80;99.90;;;;;;5120756;27;20051;-71
2022/11/14 03:28:37;;;;;;;52.60;36.97;;;6.40;99.90;;;;;;5123430;27;20082;-72
2022/11/14 03:31:04;;;;;;;53.70;34.25;;;6.50;99.90;;;;;;5139202;27;20053;-72
2022/11/14 03:33:31;;;;;;;52.80;34.05;;;6.40;99.90;;;;;;5142204;27;20092;-72
2022/11/14 03:35:56;;;;;;;53.33;35.08;;;7.70;99.90;;;;;;5121618;27;20082;-72
2022/11/14 03:38:22;;;;;;;59.55;36.55;;;8.00;99.90;;;;;;5144352;27;20130;-73
2022/11/14 03:40:49;;;;;;;52.97;35.85;;;6.40;99.90;;;;;;5143325;27;20053;-72
2022/11/14 03:43:16;;;;;;;53.15;35.28;;;6.40;99.90;;;;;;5146897;27;20039;-73
2022/11/14 03:45:42;;;;;;;53.75;35.80;;;6.30;99.90;;;;;;5144437;27;20367;-72
2022/11/14 03:48:07;;;;;;;59.10;37.53;;;6.30;99.90;;;;;;5125184;27;20058;-73
2022/11/14 03:50:33;;;;;;;56.60;37.13;;;6.50;99.90;;;;;;5126015;27;20054;-72
2022/11/14 03:52:59;;;;;;;59.75;37.45;;;6.30;99.90;;;;;;5144485;27;20042;-73
2022/11/14 03:55:24;;;;;;;55.17;36.45;;;6.40;99.90;;;;;;5123026;27;20031;-73
2022/11/14 03:57:50;;;;;;;54.95;37.20;;;6.40;99.90;;;;;;5111316;27;20050;-72
2022/11/14 04:00:16;;;;;;;59.55;37.25;;;6.30;99.90;;;;;;5123061;27;20039;-73
2022/11/14 04:02:41;;;;;;;55.42;36.08;;;6.40;99.90;;;;;;5128910;27;20060;-73
2022/11/14 04:05:08;;;;;;;54.75;35.00;;;6.40;99.90;;;;;;5142178;27;20046;-72
2022/11/14 04:07:33;;;;;;;56.78;37.40;;;6.40;99.90;;;;;;5111663;27;20406;-73
2022/11/14 04:09:59;;;;;;;56.95;37.83;;;6.40;99.90;;;;;;5125388;27;20047;-72
2022/11/14 04:12:24;;;;;;;50.22;34.45;;;6.40;99.90;;;;;;5104785;27;20027;-72
2022/11/14 04:14:50;;;;;;;51.63;35.20;;;6.40;99.90;;;;;;5128843;27;20416;-72
2022/11/14 04:17:16;;;;;;;57.67;35.95;;;6.40;99.90;;;;;;5106070;27;20039;-71
2022/11/14 04:19:41;;;;;;;54.88;37.47;;;6.40;99.90;;;;;;5145941;27;20034;-72
2022/11/14 04:22:07;;;;;;;51.08;35.35;;;6.40;99.90;;;;;;5142374;27;20483;-73
2022/11/14 04:24:33;;;;;;;54.83;36.00;;;6.40;99.90;;;;;;5128169;27;20051;-73
2022/11/14 04:26:59;;;;;;;49.55;34.47;;;6.40;99.90;;;;;;5124869;27;20072;-72
2022/11/14 04:29:24;;;;;;;50.03;34.33;;;6.80;99.90;;;;;;5140688;27;20046;-73
2022/11/14 04:31:50;;;;;;;54.10;34.90;;;6.40;99.90;;;;;;5127945;27;20038;-72
2022/11/14 04:34:16;;;;;;;53.83;35.40;;;6.40;99.90;;;;;;5140842;27;20047;-72
2022/11/14 04:36:42;;;;;;;54.30;34.67;;;7.10;99.90;;;;;;5127745;27;20053;-73
2022/11/14 04:39:08;;;;;;;49.35;35.17;;;6.40;99.90;;;;;;5141696;27;20042;-72
2022/11/14 04:41:34;;;;;;;53.85;36.83;;;6.40;99.90;;;;;;5145935;27;20050;-73
2022/11/14 04:43:59;;;;;;;57.42;37.22;;;6.40;99.90;;;;;;5143885;27;20090;-75
2022/11/14 04:46:25;;;;;;;53.90;36.22;;;6.30;99.90;;;;;;5120929;27;20050;-73
2022/11/14 04:48:51;;;;;;;49.67;35.20;;;6.30;99.90;;;;;;5145075;27;20117;-72
2022/11/14 04:51:16;;;;;;;51.83;35.17;;;6.30;99.90;;;;;;5122560;27;20394;-73
2022/11/14 04:53:42;;;;;;;54.85;34.42;;;6.30;99.90;;;;;;5121360;27;20126;-73
2022/11/14 04:56:09;;;;;;;49.83;34.22;;;7.60;99.90;;;;;;5106653;27;20035;-74
2022/11/14 04:58:34;;;;;;;51.90;35.65;;;6.30;99.90;;;;;;5145245;27;20507;-73
2022/11/14 05:01:09;;;;;;;55.45;36.28;;;7.70;99.90;;;;;;5124993;27;20051;-72
2022/11/14 05:03:34;;;;;;;52.17;35.25;;;6.30;99.90;;;;;;5109084;27;20433;-72
2022/11/14 05:06:01;;;;;;;45.60;33.28;;;6.90;99.90;;;;;;5122093;27;20049;-73
2022/11/14 05:08:26;;;;;;;49.47;35.13;;;6.80;99.90;;;;;;5109587;27;20049;-72
2022/11/14 05:10:52;;;;;;;52.92;36.65;;;6.40;99.90;;;;;;5104104;27;20043;-73
2022/11/14 05:13:18;;;;;;;49.92;33.75;;;7.30;99.90;;;;;;5147952;27;20076;-72
2022/11/14 05:15:43;;;;;;;51.78;35.65;;;6.30;99.90;;;;;;5120717;27;20042;-72
2022/11/14 05:18:09;;;;;;;44.20;32.25;;;7.90;99.90;;;;;;5141264;27;20039;-72
2022/11/14 05:20:35;;;;;;;55.30;36.83;;;6.10;99.90;;;;;;5125984;27;20090;-72
2022/11/14 05:23:01;;;;;;;50.92;34.47;;;6.90;99.90;;;;;;5121137;27;20478;-72
2022/11/14 05:25:26;;;;;;;47.75;33.17;;;6.20;99.90;;;;;;5146552;27;20046;-72
2022/11/14 05:27:52;;;;;;;47.85;35.15;;;6.30;99.90;;;;;;5139163;27;20039;-73
2022/11/14 05:30:18;;;;;;;51.97;35.83;;;6.50;99.90;;;;;;5146665;27;20093;-72
2022/11/14 05:32:44;;;;;;;50.17;33.25;;;6.30;99.90;;;;;;5121247;27;20038;-73
2022/11/14 05:35:10;;;;;;;49.95;35.80;;;6.30;99.90;;;;;;5109735;27;20402;-72
2022/11/14 05:37:36;;;;;;;48.35;34.95;;;7.30;99.90;;;;;;5142352;27;20698;-71
2022/11/14 05:40:02;;;;;;;49.40;34.90;;;6.90;99.90;;;;;;5122654;27;20065;-72
2022/11/14 05:42:28;;;;;;;46.53;34.70;;;6.40;99.90;;;;;;5142285;27;20031;-72
2022/11/14 05:44:54;;;;;;;49.28;34.13;;;6.30;99.90;;;;;;5124686;27;20486;-72
2022/11/14 05:47:19;;;;;;;51.78;36.00;;;6.80;99.90;;;;;;5110281;27;20421;-73
2022/11/14 05:49:45;;;;;;;48.80;34.45;;;6.40;99.90;;;;;;5141775;27;20043;-72
2022/11/14 05:52:11;;;;;;;51.45;35.50;;;6.40;99.90;;;;;;5106270;27;20031;-73
2022/11/14 05:54:36;;;;;;;52.08;34.88;;;6.40;99.90;;;;;;5142702;27;20046;-72
2022/11/14 05:57:03;;;;;;;50.10;35.05;;;6.30;99.90;;;;;;5129340;27;20422;-72
2022/11/14 05:59:29;;;;;;;55.75;37.33;;;6.30;99.90;;;;;;5142948;27;20031;-72
2022/11/14 06:01:54;;;;;;;50.67;35.17;;;6.80;99.90;;;;;;5123096;27;20047;-73
2022/11/14 06:04:20;;;;;;;53.28;35.60;;;6.30;99.90;;;;;;5141222;27;20034;-73
2022/11/14 06:06:46;;;;;;;49.60;34.22;;;6.30;99.90;;;;;;5142340;27;20043;-73
2022/11/14 06:09:11;;;;;;;53.45;34.25;;;6.30;99.90;;;;;;5122784;27;20039;-72
2022/11/14 06:11:37;;;;;;;48.47;33.50;;;6.30;99.90;;;;;;5106406;27;20042;-72
2022/11/14 06:14:03;;;;;;;48.63;34.00;;;6.60;99.90;;;;;;5103797;27;20043;-72
2022/11/14 06:16:28;;;;;;;53.25;34.03;;;6.30;99.90;;;;;;5107350;27;20027;-72
2022/11/14 06:18:55;;;;;;;50.40;34.72;;;6.30;99.90;;;;;;5140843;27;20496;-73
2022/11/14 06:21:22;;;;;;;51.63;33.13;;;6.20;99.90;;;;;;5123319;27;20070;-73
2022/11/14 06:23:49;;;;;;;50.50;33.72;;;6.00;99.90;;;;;;5142203;27;20056;-72
2022/11/14 06:26:24;;;;;;;53.60;36.22;;;6.30;99.90;;;;;;5140759;27;20039;-71
2022/11/14 06:28:51;;;;;;;54.88;34.45;;;6.30;99.90;;;;;;5123507;27;20057;-72
2022/11/14 06:31:18;;;;;;;51.70;35.20;;;6.30;99.90;;;;;;5123511;27;20113;-72
2022/11/14 06:33:44;;;;;;;52.45;36.22;;;6.20;99.90;;;;;;5122895;27;20046;-71
2022/11/14 06:36:10;;;;;;;57.08;35.80;;;6.30;99.90;;;;;;5121503;27;20134;-72
2022/11/14 06:38:38;;;;;;;55.25;35.78;;;6.20;99.90;;;;;;5141677;27;20035;-72
2022/11/14 06:41:12;;;;;;;56.67;35.33;;;6.20;99.90;;;;;;5141442;27;20184;-72
2022/11/14 06:43:43;;;;;;;52.20;37.08;;;6.20;99.90;;;;;;5123998;27;20049;-72
2022/11/14 06:46:11;;;;;;;51.15;35.13;;;6.20;99.90;;;;;;5122653;27;20366;-72
2022/11/14 06:48:37;;;;;;;57.60;36.53;;;6.20;99.90;;;;;;5142356;27;20038;-72
2022/11/14 06:51:03;;;;;;;52.80;36.28;;;6.20;99.90;;;;;;5141942;27;20285;-72
2022/11/14 06:53:31;;;;;;;50.38;34.50;;;6.20;99.90;;;;;;5119589;27;20051;-71
2022/11/14 06:56:01;;;;;;;55.10;35.42;;;6.40;99.90;;;;;;5145913;27;20054;-72
2022/11/14 06:58:31;;;;;;;55.92;36.10;;;6.20;99.90;;;;;;5138212;27;20455;-72
2022/11/14 07:01:04;;;;;;;58.13;38.28;;;7.20;99.90;;;;;;5137665;27;20031;-72
2022/11/14 07:03:29;;;;;;;59.50;37.00;;;7.10;99.90;;;;;;5138405;27;20126;-72
2022/11/14 07:05:57;;;;;;;60.78;37.88;;;6.10;99.90;;;;;;5095803;28;20181;-72
2022/11/14 07:08:23;;;;;;;56.17;36.85;;;6.10;99.90;;;;;;5144605;27;20495;-72
2022/11/14 07:10:48;;;;;;;62.53;39.28;;;7.10;99.90;;;;;;5138370;27;20169;-73
2022/11/14 07:13:14;;;;;;;56.22;36.75;;;6.00;99.90;;;;;;5150105;27;20042;-72
2022/11/14 07:15:50;;;;;;;60.58;39.42;;;6.10;99.90;;;;;;5141490;27;20100;-72
2022/11/14 07:18:16;;;;;;;64.85;40.00;;;7.60;99.90;;;;;;5108603;27;20493;-74
2022/11/14 07:20:42;;;;;;;62.33;37.42;;;6.00;99.90;;;;;;5128058;27;20143;-72
2022/11/14 07:23:07;;;;;;;63.28;37.50;;;5.10;99.90;;;;;;5142321;27;20367;-72
2022/11/14 07:25:33;;;;;;;58.53;35.95;;;6.00;99.90;;;;;;5113265;27;20039;-72
2022/11/14 07:27:58;;;;;;;56.92;36.17;;;6.00;99.90;;;;;;5105461;27;20042;-73
2022/11/14 07:30:24;;;;;;;65.47;39.25;;;6.00;99.90;;;;;;5150133;27;20386;-72
2022/11/14 07:32:57;;;;;;;58.20;36.90;;;7.10;99.90;;;;;;5141699;27;20038;-72
2022/11/14 07:35:23;;;;;;;63.17;38.30;;;6.00;99.90;;;;;;5125089;27;20099;-72
2022/11/14 07:37:49;;;;;;;58.00;36.92;;;6.70;99.90;;;;;;5126432;27;20063;-72
2022/11/14 07:40:16;;;;;;;61.55;38.72;;;6.00;99.90;;;;;;5124779;27;20047;-71
2022/11/14 07:42:42;;;;;;;64.78;38.88;;;6.30;99.90;;;;;;5127730;27;20069;-71
2022/11/14 07:45:09;;;;;;;62.72;39.00;;;5.90;99.90;;;;;;5123829;27;20542;-72
2022/11/14 07:47:35;;;;;;;62.63;37.47;;;6.00;99.90;;;;;;5130337;27;20043;-71
2022/11/14 07:50:01;;;;;;;64.45;37.85;;;6.00;99.90;;;;;;5121832;27;20084;-72
2022/11/14 07:52:26;;;;;;;64.03;39.10;;;6.00;99.90;;;;;;5109657;27;20047;-71
2022/11/14 07:54:52;;;;;;;65.25;39.13;;;6.00;99.90;;;;;;5126859;27;20035;-72
2022/11/14 07:57:18;;;;;;;65.38;38.10;;;6.80;99.90;;;;;;5107937;27;20173;-73
2022/11/14 07:59:43;;;;;;;69.78;38.58;;;6.00;99.90;;;;;;5126333;27;20043;-73
2022/11/14 08:02:12;;;;;;;59.95;37.78;;;6.00;99.90;;;;;;5142211;27;20075;-72
2022/11/14 08:04:39;;;;;;;61.83;37.70;;;7.10;99.90;;;;;;5144390;27;20107;-72
2022/11/14 08:07:04;;;;;;;59.33;35.50;;;6.00;99.90;;;;;;5143405;27;20478;-72
2022/11/14 08:09:30;;;;;;;57.25;36.30;;;5.90;99.90;;;;;;5129734;27;20087;-73
2022/11/14 08:11:55;;;;;;;55.42;34.53;;;5.90;99.90;;;;;;5125386;27;20038;-72
2022/11/14 08:14:21;;;;;;;59.92;35.67;;;5.90;99.90;;;;;;5144024;27;20071;-73
2022/11/14 08:16:46;;;;;;;60.85;35.47;;;5.90;99.90;;;;;;5108786;27;20091;-72
2022/11/14 08:19:12;;;;;;;60.47;35.78;;;7.50;99.90;;;;;;5123004;27;20047;-72
2022/11/14 08:21:38;;;;;;;58.83;35.75;;;6.00;99.90;;;;;;5125840;27;20034;-72
2022/11/14 08:24:04;;;;;;;55.33;34.42;;;6.00;99.90;;;;;;5123838;27;20057;-72
2022/11/14 08:26:29;;;;;;;58.50;35.78;;;6.00;99.90;;;;;;5140460;27;20055;-72
2022/11/14 08:28:55;;;;;;;62.47;37.22;;;7.20;99.90;;;;;;5125794;27;20454;-72
2022/11/14 08:31:22;;;;;;;57.53;36.47;;;6.00;99.90;;;;;;5124642;27;20035;-72
2022/11/14 08:33:50;;;;;;;60.65;35.42;;;6.00;99.90;;;;;;5126016;27;20045;-72
2022/11/14 08:36:16;;;;;;;58.92;34.97;;;6.10;99.90;;;;;;5122883;27;20050;-72
2022/11/14 08:38:41;;;;;;;58.28;35.63;;;6.00;99.90;;;;;;5124746;27;20047;-72
2022/11/14 08:41:07;;;;;;;59.88;34.53;;;6.00;99.90;;;;;;5123920;27;20045;-72
2022/11/14 08:43:32;;;;;;;59.22;35.10;;;6.10;99.90;;;;;;5126089;27;20035;-72
2022/11/14 08:45:59;;;;;;;60.00;35.45;;;6.00;99.90;;;;;;5143453;27;20549;-72
2022/11/14 08:48:25;;;;;;;64.25;35.92;;;6.00;99.90;;;;;;5143112;27;20390;-72
2022/11/14 08:50:51;;;;;;;54.95;35.33;;;6.00;99.90;;;;;;5143635;27;20039;-72
2022/11/14 08:53:16;;;;;;;60.75;38.20;;;6.00;99.90;;;;;;5141653;27;20043;-72
2022/11/14 08:55:46;;;;;;;59.10;35.35;;;6.70;99.90;;;;;;5126455;27;20099;-71
2022/11/14 08:58:12;;;;;;;56.80;36.28;;;6.10;99.90;;;;;;5123838;27;20745;-73
2022/11/14 09:00:38;;;;;;;58.28;35.42;;;6.10;99.90;;;;;;5125839;27;20075;-72
2022/11/14 09:03:14;;;;;;;56.78;35.38;;;6.10;99.90;;;;;;5131294;27;20038;-72
2022/11/14 09:05:41;;;;;;;60.50;37.05;;;6.10;99.90;;;;;;5096700;27;20501;-72
2022/11/14 09:08:06;;;;;;;55.95;35.10;;;6.10;99.90;;;;;;5127449;27;20058;-73
2022/11/14 09:10:33;;;;;;;55.60;34.35;;;6.10;99.90;;;;;;5140079;27;20039;-72
2022/11/14 09:13:00;;;;;;;53.92;34.75;;;6.10;99.90;;;;;;5111063;27;20046;-72
2022/11/14 09:15:29;;;;;;;57.17;34.30;;;6.10;99.90;;;;;;5121745;27;20563;-72
2022/11/14 09:17:56;;;;;;;53.20;33.90;;;6.10;99.90;;;;;;5121142;27;20384;-73
2022/11/14 09:20:23;;;;;;;52.95;33.47;;;6.10;99.90;;;;;;5126314;27;20100;-73
2022/11/14 09:22:52;;;;;;;52.13;35.13;;;6.20;99.90;;;;;;5121360;27;20047;-73
2022/11/14 09:25:18;;;;;;;55.83;35.95;;;6.20;99.90;;;;;;5146871;27;20039;-72
2022/11/14 09:27:43;;;;;;;54.80;33.72;;;6.20;99.90;;;;;;5119695;27;20391;-72
2022/11/14 09:30:10;;;;;;;53.97;34.85;;;6.30;99.90;;;;;;5128872;27;20083;-73
2022/11/14 09:32:36;;;;;;;52.13;33.22;;;6.30;99.90;;;;;;5121641;27;20047;-74
2022/11/14 09:35:01;;;;;;;53.25;32.78;;;6.30;99.90;;;;;;5101999;27;20063;-73
2022/11/14 09:37:27;;;;;;;54.95;33.45;;;6.30;99.90;;;;;;5127059;27;20438;-73
2022/11/14 09:39:52;;;;;;;49.15;33.70;;;6.40;99.90;;;;;;5139076;27;20071;-71
2022/11/14 09:42:37;;;;;;;59.35;35.70;;;6.40;99.90;;;;;;5127367;27;20047;-73
2022/11/14 09:45:09;;;;;;;50.58;31.58;;;6.50;99.90;;;;;;5121203;27;20039;-73
2022/11/14 09:47:51;;;;;;;51.63;33.70;;;6.50;99.90;;;;;;5139195;27;20035;-72
2022/11/14 09:50:29;;;;;;;55.70;33.88;;;6.60;99.90;;;;;;5120963;27;20041;-72
2022/11/14 09:52:57;;;;;;;52.28;33.92;;;6.60;99.90;;;;;;5124660;27;20482;-72
2022/11/14 09:55:28;;;;;;;57.75;36.17;;;6.60;99.90;;;;;;5141454;27;20039;-72
2022/11/14 09:57:55;;;;;;;55.58;34.53;;;6.70;99.90;;;;;;5122861;27;20405;-72
2022/11/14 10:00:27;;;;;;;52.35;34.03;;;6.80;99.90;;;;;;5106445;27;20046;-71
2022/11/14 10:02:55;;;;;;;48.35;31.75;;;6.80;99.90;;;;;;5142153;27;20089;-71
2022/11/14 10:05:21;;;;;;;44.60;30.15;;;7.10;99.90;;;;;;5105278;27;20047;-72
2022/11/14 10:07:49;;;;;;;47.10;31.63;;;6.90;99.90;;;;;;5106753;27;20445;-73
2022/11/14 10:10:41;;;;;;;45.65;30.88;;;6.80;99.90;;;;;;5140406;27;20046;-72
2022/11/14 10:13:10;;;;;;;49.05;31.15;;;6.80;99.90;;;;;;5102948;27;20126;-72
2022/11/14 10:16:00;;;;;;;49.20;31.38;;;6.80;99.90;;;;;;5124421;27;20035;-72
2022/11/14 10:18:56;;;;;;;49.42;30.83;;;6.80;99.90;;;;;;5128026;27;20046;-73
2022/11/14 10:21:55;;;;;;;44.83;31.55;;;6.90;99.90;;;;;;5088111;27;20084;-75
2022/11/14 10:24:37;;;;;;;48.97;31.55;;;6.90;99.90;;;;;;5121705;27;20036;-72
2022/11/14 10:27:32;;;;;;;48.67;32.30;;;7.00;99.90;;;;;;5123516;27;20042;-72
2022/11/14 10:30:14;;;;;;;47.47;32.08;;;7.00;99.90;;;;;;5110473;28;20058;-72
2022/11/14 10:32:49;;;;;;;45.67;29.92;;;7.20;99.90;;;;;;5137992;27;20129;-72
2022/11/14 10:35:47;;;;;;;42.30;29.42;;;7.20;99.90;;;;;;5128386;27;20107;-72
2022/11/14 10:38:26;;;;;;;46.65;31.48;;;7.20;99.90;;;;;;5118973;27;20420;-72
2022/11/14 10:40:57;;;;;;;44.13;29.15;;;7.20;99.90;;;;;;5123373;27;20076;-72
2022/11/14 10:43:45;;;;;;;48.83;31.58;;;7.30;99.90;;;;;;5117287;27;20027;-72
2022/11/14 10:46:23;;;;;;;49.20;31.98;;;7.20;99.90;;;;;;5124261;27;20070;-72
2022/11/14 10:48:49;;;;;;;46.30;30.95;;;7.30;99.90;;;;;;5146242;27;20057;-72
2022/11/14 10:51:30;;;;;;;46.58;32.40;;;7.30;99.90;;;;;;5126000;27;20070;-72
2022/11/14 10:54:08;;;;;;;44.40;30.10;;;7.40;99.90;;;;;;5123958;27;20507;-72
2022/11/14 10:56:44;;;;;;;42.08;28.88;;;7.50;99.90;;;;;;5128354;27;20046;-72
2022/11/14 10:59:10;;;;;;;44.22;29.60;;;7.50;99.90;;;;;;5125743;27;20402;-76
2022/11/14 11:01:38;;;;;;;40.60;28.67;;;7.80;99.90;;;;;;5152085;27;20512;-73
2022/11/14 11:04:12;;;;;;;38.33;27.98;;;7.60;99.90;;;;;;5126988;27;20053;-73
2022/11/14 11:06:37;;;;;;;38.53;27.83;;;7.60;99.90;;;;;;5146023;27;20406;-72
2022/11/14 11:12:35;;;;;;;37.60;26.55;;;7.60;99.90;;;;;;5141859;27;20095;-72
2022/11/14 11:15:23;;;;;;;40.85;27.83;;;7.50;99.90;;;;;;5126359;27;20050;-72
2022/11/14 11:18:22;;;;;;;38.22;26.55;;;7.60;99.90;;;;;;5104619;27;20053;-73
2022/11/14 11:21:00;;;;;;;40.10;27.42;;;7.50;99.90;;;;;;5107978;27;20047;-72
2022/11/14 11:23:26;;;;;;;40.28;28.42;;;7.50;99.90;;;;;;5126277;27;20047;-74
2022/11/14 11:26:15;;;;;;;36.65;26.75;;;7.50;99.90;;;;;;5126508;27;20081;-73
2022/11/14 11:28:40;;;;;;;41.83;28.35;;;7.60;99.90;;;;;;5141919;27;20407;-73
2022/11/14 11:31:08;;;;;;;42.97;29.55;;;7.70;99.90;;;;;;5148154;27;20035;-73
2022/11/14 11:33:38;;;;;;;44.97;28.95;;;7.70;99.90;;;;;;5141587;27;20382;-73
2022/11/14 11:36:16;;;;;;;38.40;27.40;;;7.90;99.90;;;;;;5148035;27;20393;-73
2022/11/14 11:38:44;;;;;;;42.90;28.90;;;7.80;99.90;;;;;;5141578;27;20140;-74
2022/11/14 11:41:26;;;;;;;40.13;28.63;;;7.80;99.90;;;;;;5130372;27;20496;-76
2022/11/14 11:43:59;;;;;;;43.30;29.17;;;7.90;99.90;;;;;;5141401;27;20420;-74
2022/11/14 11:46:39;;;;;;;40.85;28.75;;;7.90;99.90;;;;;;5143131;27;20498;-73
2022/11/14 11:49:18;;;;;;;41.05;28.52;;;7.90;99.90;;;;;;5119474;27;20129;-73
2022/11/14 11:51:45;;;;;;;40.13;28.42;;;7.90;99.90;;;;;;5118935;27;20167;-73
2022/11/14 11:54:21;;;;;;;38.38;28.83;;;7.90;99.90;;;;;;5126980;27;20050;-73
2022/11/14 11:56:51;;;;;;;40.00;27.70;;;8.50;99.90;;;;;;5144655;27;20171;-76
2022/11/14 11:59:39;;;;;;;38.53;27.85;;;7.90;99.90;;;;;;5141462;27;20085;-74
2022/11/14 12:02:22;;;;;;;36.58;25.95;;;7.90;99.90;;;;;;5124838;27;20039;-74
2022/11/14 12:04:50;;;;;;;35.88;26.13;;;8.00;99.90;;;;;;5139871;27;20340;-73
2022/11/14 12:07:19;;;;;;;36.33;26.40;;;8.00;99.90;;;;;;5123481;27;20073;-74
2022/11/14 12:09:45;;;;;;;38.30;27.77;;;9.00;99.90;;;;;;5145064;27;20086;-74
2022/11/14 12:12:30;;;;;;;33.92;25.65;;;8.10;99.90;;;;;;5143766;27;20062;-73
2022/11/14 12:15:17;;;;;;;35.95;26.08;;;8.10;99.90;;;;;;5125616;27;20046;-73
2022/11/14 12:17:57;;;;;;;35.47;26.40;;;8.10;99.90;;;;;;5145170;27;20492;-73
2022/11/14 12:20:36;;;;;;;36.65;25.88;;;8.10;99.90;;;;;;5142679;27;20047;-73
2022/11/14 12:23:25;;;;;;;35.58;25.33;;;8.00;99.90;;;;;;5113831;27;20137;-73
2022/11/14 12:26:22;;;;;;;37.65;25.77;;;8.10;99.90;;;;;;5122280;27;20133;-73
2022/11/14 12:29:25;;;;;;;37.88;25.70;;;8.10;99.90;;;;;;5126598;27;20406;-73
2022/11/14 12:31:57;;;;;;;40.65;27.00;;;8.10;99.90;;;;;;5100638;27;20062;-73
2022/11/14 12:34:47;;;;;;;37.15;26.48;;;8.10;99.90;;;;;;5123561;27;20508;-73
2022/11/14 12:37:35;;;;;;;37.88;28.30;;;8.10;99.90;;;;;;5127651;27;20047;-73
2022/11/14 12:40:05;;;;;;;40.72;28.00;;;8.10;99.90;;;;;;5140206;27;20046;-73
2022/11/14 12:42:31;;;;;;;38.30;26.73;;;8.10;99.90;;;;;;5146967;27;20035;-73
2022/11/14 12:44:57;;;;;;;38.08;27.10;;;8.70;99.90;;;;;;5121699;27;20160;-72
2022/11/14 12:47:24;;;;;;;39.92;28.48;;;8.10;99.90;;;;;;5112965;27;20074;-73